Time;durP1;ratioP1;P1;durP2;ratioP2;P2;SDS_P1;SDS_P2;PMS_P1;PMS_P2;Temp;Humidity;BMP_temperature;BMP_pressure;BME280_temperature;BME280_humidity;BME280_pressure;Samples;Min_cycle;Max_cycle;Signal;HPM_P1;HPM_P2
2022/10/09 00:01:14;;;;;;;15.00;13.43;;;;;;;;;;1826424;77;617724;-75
2022/10/09 00:03:45;;;;;;;14.70;13.53;;;;;;;;;;1834407;77;615798;-75
2022/10/09 00:06:16;;;;;;;14.90;13.47;;;;;;;;;;1826509;77;616600;-76
2022/10/09 00:08:46;;;;;;;13.37;12.37;;;;;;;;;;1834365;77;615875;-76
2022/10/09 00:11:15;;;;;;;14.47;13.07;;;;;;;;;;1821595;77;617678;-75
2022/10/09 00:13:44;;;;;;;13.73;12.73;;;;;;;;;;1833797;77;615951;-76
2022/10/09 00:16:15;;;;;;;14.13;13.00;;;;;;;;;;1778824;78;617845;-75
2022/10/09 00:18:45;;;;;;;13.50;12.60;;;;;;;;;;1819590;78;615882;-75
2022/10/09 00:21:18;;;;;;;14.27;12.93;;;;;;;;;;1784393;78;617784;-75
2022/10/09 00:23:47;;;;;;;14.13;12.73;;;;;;;;;;1816122;76;616041;-75
2022/10/09 00:26:16;;;;;;;13.43;12.33;;;;;;;;;;1885607;73;617841;-75
2022/10/09 00:28:46;;;;;;;14.17;13.17;;;;;;;;;;1894089;73;616161;-75
2022/10/09 00:31:15;;;;;;;14.47;13.13;;;;;;;;;;1885489;74;617733;-75
2022/10/09 00:33:44;;;;;;;14.73;13.30;;;;;;;;;;1894012;73;615887;-76
2022/10/09 00:36:13;;;;;;;13.67;12.63;;;;;;;;;;1885693;73;617764;-75
2022/10/09 00:38:42;;;;;;;14.40;13.30;;;;;;;;;;1894304;73;615960;-75
2022/10/09 00:41:13;;;;;;;14.03;13.03;;;;;;;;;;1885687;73;616895;-75
2022/10/09 00:43:44;;;;;;;14.63;13.53;;;;;;;;;;1894004;75;615592;-75
2022/10/09 00:46:17;;;;;;;13.77;12.97;;;;;;;;;;1885946;73;617641;-76
2022/10/09 00:48:47;;;;;;;14.70;13.30;;;;;;;;;;1893949;74;615884;-75
2022/10/09 00:51:15;;;;;;;14.03;12.90;;;;;;;;;;1885666;73;617746;-75
2022/10/09 00:53:44;;;;;;;13.43;12.43;;;;;;;;;;1829870;76;616017;-75
2022/10/09 00:56:13;;;;;;;13.43;12.63;;;;;;;;;;1826549;77;617817;-76
2022/10/09 00:58:42;;;;;;;14.90;13.43;;;;;;;;;;1806183;77;616058;-75
2022/10/09 01:01:11;;;;;;;14.00;13.00;;;;;;;;;;1826535;77;617833;-75
2022/10/09 01:03:41;;;;;;;14.30;13.20;;;;;;;;;;1749539;78;616089;-75
2022/10/09 01:06:13;;;;;;;13.77;12.83;;;;;;;;;;1814668;76;617705;-75
2022/10/09 01:08:44;;;;;;;14.17;13.03;;;;;;;;;;1819163;76;615879;-75
2022/10/09 01:11:15;;;;;;;14.67;13.33;;;;;;;;;;1885507;73;617732;-75
2022/10/09 01:13:46;;;;;;;13.50;12.47;;;;;;;;;;1816244;76;615722;-75
2022/10/09 01:16:18;;;;;;;13.63;12.73;;;;;;;;;;1885609;73;617628;-75
2022/10/09 01:18:48;;;;;;;13.33;12.33;;;;;;;;;;1893997;75;615865;-75
2022/10/09 01:21:18;;;;;;;13.67;12.63;;;;;;;;;;1885440;75;616504;-75
2022/10/09 01:24:00;;;;;;;13.67;12.33;;;;;;;;;;1889354;75;616014;-75
2022/10/09 01:26:47;;;;;;;13.43;12.43;;;;;;;;;;1873004;75;617197;-75
2022/10/09 01:29:18;;;;;;;13.37;12.33;;;;;;;;;;1836129;75;617777;-75
2022/10/09 01:31:48;;;;;;;13.53;12.40;;;;;;;;;;1893816;73;615818;-75
2022/10/09 01:34:19;;;;;;;13.63;12.53;;;;;;;;;;1855801;75;616902;-75
2022/10/09 01:36:49;;;;;;;13.10;12.23;;;;;;;;;;1893818;75;615598;-75
2022/10/09 01:39:19;;;;;;;13.97;12.57;;;;;;;;;;1880398;73;617002;-75
2022/10/09 01:41:50;;;;;;;13.63;12.40;;;;;;;;;;1893811;74;615768;-75
2022/10/09 01:44:19;;;;;;;13.77;12.67;;;;;;;;;;1803307;77;616964;-75
2022/10/09 01:46:48;;;;;;;13.47;12.43;;;;;;;;;;1829837;77;616016;-75
2022/10/09 01:49:20;;;;;;;13.83;12.83;;;;;;;;;;1808190;76;618178;-76
2022/10/09 01:51:50;;;;;;;13.53;12.43;;;;;;;;;;1893657;73;615944;-76
2022/10/09 01:54:21;;;;;;;13.27;12.37;;;;;;;;;;1893651;73;617982;-76
2022/10/09 01:56:51;;;;;;;13.07;12.13;;;;;;;;;;1893514;75;615924;-75
2022/10/09 01:59:19;;;;;;;13.37;12.67;;;;;;;;;;1888051;75;617866;-76
2022/10/09 02:01:49;;;;;;;13.50;12.50;;;;;;;;;;1894034;73;615685;-75
2022/10/09 02:04:18;;;;;;;13.67;12.70;;;;;;;;;;1885798;73;617874;-76
2022/10/09 02:06:47;;;;;;;12.67;11.90;;;;;;;;;;1806119;77;616130;-76
2022/10/09 02:09:18;;;;;;;12.87;11.87;;;;;;;;;;1820609;77;616950;-76
2022/10/09 02:11:50;;;;;;;13.13;12.17;;;;;;;;;;1834300;77;615854;-76
2022/10/09 02:14:19;;;;;;;13.70;12.70;;;;;;;;;;1805274;77;617880;-76
2022/10/09 02:16:49;;;;;;;13.40;12.50;;;;;;;;;;1834356;77;615985;-76
2022/10/09 02:19:21;;;;;;;13.47;12.40;;;;;;;;;;1759640;78;617952;-76
2022/10/09 02:21:52;;;;;;;14.10;13.07;;;;;;;;;;1862012;75;615759;-75
2022/10/09 02:24:21;;;;;;;13.07;12.07;;;;;;;;;;1889718;73;617811;-76
2022/10/09 02:26:51;;;;;;;13.40;12.20;;;;;;;;;;1893823;75;615920;-76
2022/10/09 02:29:24;;;;;;;12.47;11.57;;;;;;;;;;1894046;73;617930;-76
2022/10/09 02:31:53;;;;;;;13.13;12.10;;;;;;;;;;1893966;74;615976;-76
2022/10/09 02:34:22;;;;;;;12.47;11.27;;;;;;;;;;1889074;75;616993;-76
2022/10/09 02:36:51;;;;;;;12.53;11.70;;;;;;;;;;1888723;73;616102;-76
2022/10/09 02:39:20;;;;;;;12.07;10.93;;;;;;;;;;1893923;74;617939;-76
2022/10/09 02:41:51;;;;;;;11.57;10.60;;;;;;;;;;1894024;73;615973;-76
2022/10/09 02:44:22;;;;;;;11.80;10.80;;;;;;;;;;1819021;76;617872;-76
2022/10/09 02:46:52;;;;;;;11.90;11.10;;;;;;;;;;1893896;75;616025;-76
2022/10/09 02:49:21;;;;;;;13.40;12.03;;;;;;;;;;1893932;73;617913;-76
2022/10/09 02:51:50;;;;;;;13.00;11.90;;;;;;;;;;1893741;75;616019;-76
2022/10/09 02:54:22;;;;;;;12.70;11.80;;;;;;;;;;1819252;76;617813;-76
2022/10/09 02:56:50;;;;;;;12.63;11.63;;;;;;;;;;1889305;73;615959;-76
2022/10/09 02:59:20;;;;;;;12.00;11.10;;;;;;;;;;1827571;75;617222;-76
2022/10/09 03:01:49;;;;;;;12.47;11.43;;;;;;;;;;1803870;77;616141;-76
2022/10/09 03:04:18;;;;;;;12.63;11.53;;;;;;;;;;1798644;78;617887;-76
2022/10/09 03:06:47;;;;;;;13.00;12.13;;;;;;;;;;1796728;78;616024;-76
2022/10/09 03:09:16;;;;;;;12.73;11.67;;;;;;;;;;1793786;78;617813;-76
2022/10/09 03:11:45;;;;;;;12.43;11.70;;;;;;;;;;1775509;78;615970;-76
2022/10/09 03:14:14;;;;;;;12.07;11.27;;;;;;;;;;1819101;74;617823;-76
2022/10/09 03:16:43;;;;;;;12.07;11.10;;;;;;;;;;1691354;82;616099;-76
2022/10/09 03:19:13;;;;;;;12.57;11.77;;;;;;;;;;1760865;79;617879;-76
2022/10/09 03:21:42;;;;;;;12.70;11.80;;;;;;;;;;1805100;78;615907;-76
2022/10/09 03:24:13;;;;;;;14.20;13.10;;;;;;;;;;1766023;79;617848;-76
2022/10/09 03:26:43;;;;;;;13.87;12.77;;;;;;;;;;1776924;79;616073;-76
2022/10/09 03:29:11;;;;;;;14.23;13.33;;;;;;;;;;1769929;79;617743;-76
2022/10/09 03:31:40;;;;;;;13.87;12.80;;;;;;;;;;1830591;76;615872;-77
2022/10/09 03:34:19;;;;;;;13.63;12.73;;;;;;;;;;1850696;76;617733;-76
2022/10/09 03:36:48;;;;;;;13.20;12.30;;;;;;;;;;1830358;76;615752;-76
2022/10/09 03:39:18;;;;;;;13.50;12.43;;;;;;;;;;1848911;76;617808;-76
2022/10/09 03:41:47;;;;;;;12.37;11.53;;;;;;;;;;1858627;76;616095;-76
2022/10/09 03:44:17;;;;;;;12.77;11.83;;;;;;;;;;1850613;74;616986;-76
2022/10/09 03:46:46;;;;;;;13.20;12.37;;;;;;;;;;1858465;74;615705;-76
2022/10/09 03:49:16;;;;;;;12.73;11.90;;;;;;;;;;1850731;74;617990;-76
2022/10/09 03:51:45;;;;;;;13.17;12.30;;;;;;;;;;1858530;74;615877;-76
2022/10/09 03:54:15;;;;;;;13.10;12.13;;;;;;;;;;1850538;74;618046;-76
2022/10/09 03:56:44;;;;;;;13.50;12.67;;;;;;;;;;1858554;75;616122;-77
2022/10/09 03:59:13;;;;;;;13.87;12.87;;;;;;;;;;1850448;74;618330;-76
2022/10/09 04:01:42;;;;;;;13.40;12.40;;;;;;;;;;1825208;76;616105;-76
2022/10/09 04:04:12;;;;;;;13.00;12.10;;;;;;;;;;1780302;78;617791;-76
2022/10/09 04:06:40;;;;;;;13.67;12.60;;;;;;;;;;1810930;77;616086;-76
2022/10/09 04:09:09;;;;;;;13.30;12.47;;;;;;;;;;1755645;78;617755;-77
2022/10/09 04:11:37;;;;;;;13.20;12.20;;;;;;;;;;1818344;78;617922;-76
2022/10/09 04:14:07;;;;;;;14.17;13.17;;;;;;;;;;1780585;78;617879;-76
2022/10/09 04:16:36;;;;;;;13.73;12.83;;;;;;;;;;1665607;81;617107;-76
2022/10/09 04:19:06;;;;;;;14.17;13.17;;;;;;;;;;1728250;79;617884;-76
2022/10/09 04:21:35;;;;;;;14.10;13.20;;;;;;;;;;1765199;79;617959;-76
2022/10/09 04:24:07;;;;;;;14.07;12.87;;;;;;;;;;1729199;79;617771;-76
2022/10/09 04:26:34;;;;;;;13.67;12.77;;;;;;;;;;1765380;80;617093;-76
2022/10/09 04:29:03;;;;;;;14.13;12.90;;;;;;;;;;1757670;80;618206;-76
2022/10/09 04:31:32;;;;;;;13.77;12.57;;;;;;;;;;1765161;79;618081;-75
2022/10/09 04:34:00;;;;;;;12.83;11.93;;;;;;;;;;1728831;80;617731;-76
2022/10/09 04:36:30;;;;;;;12.60;11.90;;;;;;;;;;1741566;80;617220;-76
2022/10/09 04:38:59;;;;;;;12.60;11.77;;;;;;;;;;1779525;78;617862;-76
2022/10/09 04:41:27;;;;;;;11.87;10.80;;;;;;;;;;1721815;81;617111;-76
2022/10/09 04:43:56;;;;;;;11.53;10.30;;;;;;;;;;1810248;77;617978;-76
2022/10/09 04:46:25;;;;;;;11.10;10.30;;;;;;;;;;1788253;78;617971;-76
2022/10/09 04:48:55;;;;;;;10.90;10.10;;;;;;;;;;1813100;77;618167;-76
2022/10/09 04:51:24;;;;;;;10.83;9.93;;;;;;;;;;1814388;78;617789;-76
2022/10/09 04:53:54;;;;;;;10.50;9.70;;;;;;;;;;1741671;80;613701;-76
2022/10/09 04:56:25;;;;;;;11.07;10.13;;;;;;;;;;1818131;77;615724;-76
2022/10/09 04:58:54;;;;;;;11.30;10.50;;;;;;;;;;1816581;77;617886;-76
2022/10/09 05:01:25;;;;;;;10.87;10.00;;;;;;;;;;1834952;76;617810;-76
2022/10/09 05:03:54;;;;;;;11.97;10.13;;;;;;;;;;1810781;77;617834;-76
2022/10/09 05:06:23;;;;;;;10.90;10.10;;;;;;;;;;1769236;80;616904;-75
2022/10/09 05:08:53;;;;;;;11.17;10.37;;;;;;;;;;1720174;80;616190;-76
2022/10/09 05:11:22;;;;;;;11.07;10.00;;;;;;;;;;1774053;79;617836;-76
2022/10/09 05:13:51;;;;;;;11.20;10.20;;;;;;;;;;1745057;80;615073;-76
2022/10/09 05:16:21;;;;;;;10.67;9.90;;;;;;;;;;1744820;80;618076;-76
2022/10/09 05:18:52;;;;;;;10.67;9.87;;;;;;;;;;1745543;80;613938;-76
2022/10/09 05:21:21;;;;;;;11.03;10.23;;;;;;;;;;1774032;79;615842;-76
2022/10/09 05:23:51;;;;;;;11.40;10.40;;;;;;;;;;1774076;79;616014;-76
2022/10/09 05:26:21;;;;;;;10.77;9.97;;;;;;;;;;1744205;80;617166;-76
2022/10/09 05:28:49;;;;;;;10.43;9.57;;;;;;;;;;1774358;79;613910;-76
2022/10/09 05:31:19;;;;;;;11.50;10.50;;;;;;;;;;1736931;80;615804;-75
2022/10/09 05:33:49;;;;;;;10.07;9.47;;;;;;;;;;1721102;80;616190;-75
2022/10/09 05:36:18;;;;;;;10.77;9.83;;;;;;;;;;1713987;80;615726;-76
2022/10/09 05:38:48;;;;;;;10.37;9.70;;;;;;;;;;1722035;80;614045;-76
2022/10/09 05:41:18;;;;;;;11.03;10.00;;;;;;;;;;1713709;80;615744;-76
2022/10/09 05:43:47;;;;;;;10.83;9.93;;;;;;;;;;1774177;79;615985;-76
2022/10/09 05:46:22;;;;;;;10.17;9.37;;;;;;;;;;1733844;80;614913;-76
2022/10/09 05:48:53;;;;;;;11.50;10.30;;;;;;;;;;1787103;78;614018;-77
2022/10/09 05:51:22;;;;;;;11.07;10.07;;;;;;;;;;1818205;78;617863;-76
2022/10/09 05:53:51;;;;;;;11.27;10.27;;;;;;;;;;1748938;78;616143;-77
2022/10/09 05:56:24;;;;;;;11.67;10.67;;;;;;;;;;1733250;80;617784;-76
2022/10/09 05:58:54;;;;;;;11.27;10.57;;;;;;;;;;1765712;79;616024;-78
2022/10/09 06:01:26;;;;;;;10.97;10.20;;;;;;;;;;1686351;81;617978;-77
2022/10/09 06:03:55;;;;;;;11.50;10.70;;;;;;;;;;1734255;80;617824;-77
2022/10/09 06:06:25;;;;;;;10.93;10.03;;;;;;;;;;1763981;78;618033;-77
2022/10/09 06:08:55;;;;;;;11.93;11.03;;;;;;;;;;1715208;80;618085;-77
2022/10/09 06:11:27;;;;;;;12.63;11.57;;;;;;;;;;1765626;78;617889;-78
2022/10/09 06:13:55;;;;;;;11.77;10.87;;;;;;;;;;1810629;78;617830;-77
2022/10/09 06:16:24;;;;;;;11.70;10.93;;;;;;;;;;1818135;76;617968;-76
2022/10/09 06:18:55;;;;;;;11.60;10.90;;;;;;;;;;1725299;79;616063;-78
2022/10/09 06:21:25;;;;;;;12.43;11.17;;;;;;;;;;1765244;80;617215;-77
2022/10/09 06:23:56;;;;;;;11.57;10.67;;;;;;;;;;1759661;79;617856;-77
2022/10/09 06:26:27;;;;;;;11.57;10.83;;;;;;;;;;1754684;80;617219;-77
2022/10/09 06:28:56;;;;;;;12.90;11.60;;;;;;;;;;1757626;80;616998;-77
2022/10/09 06:31:26;;;;;;;13.20;11.90;;;;;;;;;;1765149;80;618032;-77
2022/10/09 06:33:54;;;;;;;13.43;12.30;;;;;;;;;;1728807;80;617911;-77
2022/10/09 06:36:24;;;;;;;12.40;11.40;;;;;;;;;;1741625;80;617870;-77
2022/10/09 06:38:55;;;;;;;12.73;11.53;;;;;;;;;;1817957;77;615944;-78
2022/10/09 06:41:25;;;;;;;13.57;11.43;;;;;;;;;;1787797;78;617922;-77
2022/10/09 06:43:56;;;;;;;12.30;11.07;;;;;;;;;;1810471;76;617890;-76
2022/10/09 06:46:26;;;;;;;12.03;11.03;;;;;;;;;;1818005;77;617933;-77
2022/10/09 06:48:56;;;;;;;11.50;10.60;;;;;;;;;;1810462;78;617915;-76
2022/10/09 06:51:26;;;;;;;12.07;10.97;;;;;;;;;;1817954;78;617798;-76
2022/10/09 06:53:56;;;;;;;12.70;11.57;;;;;;;;;;1810270;77;617925;-76
2022/10/09 06:56:26;;;;;;;11.93;11.10;;;;;;;;;;1818122;77;617851;-76
2022/10/09 06:58:55;;;;;;;12.37;11.50;;;;;;;;;;1779834;78;618027;-76
2022/10/09 07:01:25;;;;;;;12.80;11.70;;;;;;;;;;1748703;78;618032;-76
2022/10/09 07:03:56;;;;;;;12.53;11.53;;;;;;;;;;1757754;79;617853;-76
2022/10/09 07:06:26;;;;;;;12.47;11.50;;;;;;;;;;1765404;79;617094;-74
2022/10/09 07:08:56;;;;;;;12.93;11.80;;;;;;;;;;1734132;80;617949;-74
2022/10/09 07:11:26;;;;;;;12.57;11.50;;;;;;;;;;1818349;77;618059;-74
2022/10/09 07:13:55;;;;;;;13.33;12.30;;;;;;;;;;1714876;78;617901;-74
2022/10/09 07:16:26;;;;;;;12.53;11.57;;;;;;;;;;1764396;78;617929;-74
2022/10/09 07:18:54;;;;;;;12.10;11.30;;;;;;;;;;1714742;80;617846;-74
2022/10/09 07:21:23;;;;;;;11.73;10.90;;;;;;;;;;1787310;78;617223;-74
2022/10/09 07:23:53;;;;;;;11.87;10.97;;;;;;;;;;1788763;78;615312;-74
2022/10/09 07:26:23;;;;;;;12.20;11.30;;;;;;;;;;1818373;77;617807;-74
2022/10/09 07:28:52;;;;;;;16.80;12.73;;;;;;;;;;1788176;78;616016;-74
2022/10/09 07:31:21;;;;;;;12.83;11.70;;;;;;;;;;1787691;78;617951;-74
2022/10/09 07:33:51;;;;;;;12.23;11.40;;;;;;;;;;1818390;77;616108;-75
2022/10/09 07:36:20;;;;;;;12.90;11.60;;;;;;;;;;1727815;79;617878;-74
2022/10/09 07:38:50;;;;;;;12.63;11.43;;;;;;;;;;1766817;78;615994;-74
2022/10/09 07:41:19;;;;;;;12.87;11.67;;;;;;;;;;1765430;79;617996;-76
2022/10/09 07:43:47;;;;;;;12.53;11.50;;;;;;;;;;1713151;80;616034;-74
2022/10/09 07:46:17;;;;;;;12.27;11.07;;;;;;;;;;1728670;79;617808;-74
2022/10/09 07:48:46;;;;;;;12.67;11.47;;;;;;;;;;1736132;80;615830;-73
2022/10/09 07:51:16;;;;;;;12.43;11.57;;;;;;;;;;1728961;80;617914;-74
2022/10/09 07:53:45;;;;;;;12.90;11.80;;;;;;;;;;1733096;81;615935;-74
2022/10/09 07:56:15;;;;;;;12.80;11.57;;;;;;;;;;1757335;79;617872;-74
2022/10/09 07:58:43;;;;;;;12.13;11.13;;;;;;;;;;1736580;80;616117;-74
2022/10/09 08:01:13;;;;;;;12.53;11.40;;;;;;;;;;1757964;79;616965;-74
2022/10/09 08:03:42;;;;;;;12.53;11.67;;;;;;;;;;1765327;80;616197;-73
2022/10/09 08:06:11;;;;;;;12.63;11.63;;;;;;;;;;1706216;80;617786;-74
2022/10/09 08:08:41;;;;;;;12.70;11.60;;;;;;;;;;1765402;80;616027;-74
2022/10/09 08:11:11;;;;;;;12.30;11.20;;;;;;;;;;1705036;80;616976;-74
2022/10/09 08:13:39;;;;;;;12.13;11.20;;;;;;;;;;1736654;80;615989;-74
2022/10/09 08:16:08;;;;;;;12.53;11.23;;;;;;;;;;1757710;79;617931;-77
2022/10/09 08:18:37;;;;;;;12.30;11.37;;;;;;;;;;1765366;79;618099;-74
2022/10/09 08:21:07;;;;;;;12.70;11.67;;;;;;;;;;1734313;80;617920;-74
2022/10/09 08:23:36;;;;;;;12.53;11.60;;;;;;;;;;1818266;77;616955;-74
2022/10/09 08:26:06;;;;;;;13.93;12.43;;;;;;;;;;1780570;78;617705;-75
2022/10/09 08:28:35;;;;;;;13.00;12.20;;;;;;;;;;1787161;78;617856;-74
2022/10/09 08:31:11;;;;;;;14.13;12.80;;;;;;;;;;1756201;77;617874;-74
2022/10/09 08:33:39;;;;;;;12.77;11.97;;;;;;;;;;1818199;77;615973;-74
2022/10/09 08:36:13;;;;;;;12.13;11.20;;;;;;;;;;1810507;78;617857;-75
2022/10/09 08:38:41;;;;;;;11.77;10.77;;;;;;;;;;1818253;77;616018;-74
2022/10/09 08:41:12;;;;;;;11.87;11.03;;;;;;;;;;1779746;77;617855;-75
2022/10/09 08:43:42;;;;;;;11.77;10.93;;;;;;;;;;1818269;77;616303;-75
2022/10/09 08:46:13;;;;;;;12.67;11.70;;;;;;;;;;1780620;78;617892;-75
2022/10/09 08:48:44;;;;;;;11.90;11.00;;;;;;;;;;1818547;78;614911;-74
2022/10/09 08:51:14;;;;;;;12.87;11.83;;;;;;;;;;1810432;77;617704;-74
2022/10/09 08:53:44;;;;;;;12.60;11.80;;;;;;;;;;1751623;80;616050;-74
2022/10/09 08:56:14;;;;;;;12.30;11.43;;;;;;;;;;1679779;80;617982;-74
2022/10/09 08:58:43;;;;;;;12.37;11.47;;;;;;;;;;1722743;81;616148;-75
2022/10/09 09:01:15;;;;;;;13.10;12.20;;;;;;;;;;1810621;77;617947;-75
2022/10/09 09:03:50;;;;;;;12.77;11.77;;;;;;;;;;1818604;78;615988;-75
2022/10/09 09:06:21;;;;;;;12.03;10.87;;;;;;;;;;1748556;78;617812;-75
2022/10/09 09:08:51;;;;;;;12.53;11.27;;;;;;;;;;1759129;79;616176;-74
2022/10/09 09:11:22;;;;;;;13.10;12.00;;;;;;;;;;1765643;80;618052;-75
2022/10/09 09:13:54;;;;;;;12.70;11.70;;;;;;;;;;1765298;80;616181;-79
2022/10/09 09:16:25;;;;;;;12.53;11.53;;;;;;;;;;1736773;80;617849;-75
2022/10/09 09:18:55;;;;;;;12.70;11.63;;;;;;;;;;1729855;80;617930;-75
2022/10/09 09:21:28;;;;;;;12.50;11.60;;;;;;;;;;1756185;78;617856;-75
2022/10/09 09:23:59;;;;;;;12.67;11.67;;;;;;;;;;1810609;78;617011;-75
2022/10/09 09:26:28;;;;;;;13.17;11.97;;;;;;;;;;1722917;81;617819;-75
2022/10/09 09:28:59;;;;;;;12.53;11.43;;;;;;;;;;1810862;78;617938;-74
2022/10/09 09:31:29;;;;;;;12.30;11.40;;;;;;;;;;1748485;78;617886;-77
2022/10/09 09:33:59;;;;;;;12.97;11.87;;;;;;;;;;1757887;79;617849;-76
2022/10/09 09:36:30;;;;;;;12.40;11.40;;;;;;;;;;1742081;80;616983;-74
2022/10/09 09:39:01;;;;;;;13.37;11.90;;;;;;;;;;1779832;78;617792;-74
2022/10/09 09:41:30;;;;;;;12.17;11.27;;;;;;;;;;1818415;77;617802;-74
2022/10/09 09:43:58;;;;;;;13.63;12.20;;;;;;;;;;1714870;78;617945;-75
2022/10/09 09:46:28;;;;;;;13.83;12.03;;;;;;;;;;1818405;78;617873;-74
2022/10/09 09:48:57;;;;;;;13.20;11.97;;;;;;;;;;1779800;78;617947;-75
2022/10/09 09:51:27;;;;;;;13.60;12.40;;;;;;;;;;1818488;78;616987;-75
2022/10/09 09:53:56;;;;;;;13.30;12.30;;;;;;;;;;1810445;77;617876;-75
2022/10/09 09:56:33;;;;;;;13.03;12.07;;;;;;;;;;1818511;78;617724;-74
2022/10/09 09:59:01;;;;;;;13.27;11.97;;;;;;;;;;1810230;77;617892;-75
2022/10/09 10:01:31;;;;;;;12.17;11.20;;;;;;;;;;1818309;77;617902;-74
2022/10/09 10:04:01;;;;;;;12.40;11.50;;;;;;;;;;1810773;78;617788;-78
2022/10/09 10:06:31;;;;;;;12.87;11.47;;;;;;;;;;1788269;78;617928;-74
2022/10/09 10:09:02;;;;;;;12.43;11.63;;;;;;;;;;1779791;78;617783;-74
2022/10/09 10:11:33;;;;;;;13.17;11.83;;;;;;;;;;1818409;78;617648;-75
2022/10/09 10:14:06;;;;;;;14.90;12.23;;;;;;;;;;1781111;76;617754;-74
2022/10/09 10:16:36;;;;;;;12.13;11.03;;;;;;;;;;1818479;78;617723;-74
2022/10/09 10:19:05;;;;;;;12.27;11.27;;;;;;;;;;1810468;77;617912;-74
2022/10/09 10:21:40;;;;;;;12.43;11.43;;;;;;;;;;1818222;77;617982;-74
2022/10/09 10:24:12;;;;;;;11.67;10.67;;;;;;;;;;1810335;77;617748;-75
2022/10/09 10:26:42;;;;;;;11.47;10.73;;;;;;;;;;1698607;81;616329;-75
2022/10/09 10:29:12;;;;;;;12.23;11.27;;;;;;;;;;1680064;80;617740;-75
2022/10/09 10:31:44;;;;;;;11.83;10.90;;;;;;;;;;1765321;80;615811;-75
2022/10/09 10:34:16;;;;;;;11.77;10.83;;;;;;;;;;1728393;80;617766;-74
2022/10/09 10:36:44;;;;;;;11.43;10.53;;;;;;;;;;1722291;81;615961;-74
2022/10/09 10:39:15;;;;;;;11.50;10.80;;;;;;;;;;1810526;78;617175;-74
2022/10/09 10:41:46;;;;;;;11.80;11.00;;;;;;;;;;1817805;77;616001;-74
2022/10/09 10:44:18;;;;;;;11.57;10.87;;;;;;;;;;1741065;77;618037;-74
2022/10/09 10:46:48;;;;;;;12.33;11.57;;;;;;;;;;1765367;80;615911;-74
2022/10/09 10:49:18;;;;;;;12.10;11.40;;;;;;;;;;1757681;79;618026;-74
2022/10/09 10:51:53;;;;;;;11.93;11.23;;;;;;;;;;1765139;80;615930;-74
2022/10/09 10:54:28;;;;;;;12.73;11.73;;;;;;;;;;1764621;80;617853;-74
2022/10/09 10:56:58;;;;;;;13.27;12.03;;;;;;;;;;1734208;80;617872;-75
2022/10/09 10:59:32;;;;;;;13.03;12.03;;;;;;;;;;1817705;78;616979;-74
2022/10/09 11:02:06;;;;;;;12.70;12.00;;;;;;;;;;1780177;77;617891;-74
2022/10/09 11:04:38;;;;;;;13.03;12.13;;;;;;;;;;1787241;78;618162;-74
2022/10/09 11:07:10;;;;;;;12.97;11.90;;;;;;;;;;1740897;76;617775;-74
2022/10/09 11:09:41;;;;;;;13.20;12.10;;;;;;;;;;1733243;80;615998;-74
2022/10/09 11:12:11;;;;;;;12.90;12.10;;;;;;;;;;1757920;79;617796;-74
2022/10/09 11:14:42;;;;;;;12.93;12.00;;;;;;;;;;1688212;80;616143;-75
2022/10/09 11:17:13;;;;;;;12.23;11.53;;;;;;;;;;1714130;80;616906;-74
2022/10/09 11:19:55;;;;;;;12.33;11.53;;;;;;;;;;1787564;78;616046;-74
2022/10/09 11:22:31;;;;;;;12.17;11.30;;;;;;;;;;1787801;78;617983;-74
2022/10/09 11:25:05;;;;;;;12.30;11.30;;;;;;;;;;1779570;78;617781;-74
2022/10/09 11:27:36;;;;;;;11.57;10.67;;;;;;;;;;1818243;77;617752;-75
2022/10/09 11:30:07;;;;;;;13.43;12.37;;;;;;;;;;1810581;77;617793;-74
2022/10/09 11:32:37;;;;;;;12.10;11.30;;;;;;;;;;1818057;78;617835;-75
2022/10/09 11:35:08;;;;;;;12.53;11.83;;;;;;;;;;1810462;78;617816;-74
2022/10/09 11:37:38;;;;;;;12.83;11.83;;;;;;;;;;1763140;78;617812;-74
2022/10/09 11:40:08;;;;;;;12.17;11.20;;;;;;;;;;1810285;78;617789;-74
2022/10/09 11:42:37;;;;;;;11.97;11.27;;;;;;;;;;1817620;78;617810;-75
2022/10/09 11:45:09;;;;;;;11.67;10.83;;;;;;;;;;1780373;77;617948;-75
2022/10/09 11:47:40;;;;;;;11.30;10.60;;;;;;;;;;1817504;78;617914;-74
2022/10/09 11:50:28;;;;;;;11.47;10.60;;;;;;;;;;1810312;78;617939;-75
2022/10/09 11:52:58;;;;;;;11.20;10.33;;;;;;;;;;1810332;77;617894;-75
2022/10/09 11:55:28;;;;;;;11.33;10.50;;;;;;;;;;1818116;77;617946;-74
2022/10/09 11:57:58;;;;;;;11.00;10.40;;;;;;;;;;1715087;80;617795;-74
2022/10/09 12:00:32;;;;;;;12.50;11.53;;;;;;;;;;1786785;78;617001;-74
2022/10/09 12:03:01;;;;;;;10.63;10.03;;;;;;;;;;1810223;77;618006;-75
2022/10/09 12:05:32;;;;;;;11.73;10.67;;;;;;;;;;1788132;78;617825;-74
2022/10/09 12:08:07;;;;;;;11.33;10.60;;;;;;;;;;1754954;78;617839;-74
2022/10/09 12:10:39;;;;;;;11.43;10.60;;;;;;;;;;1788302;78;617897;-74
2022/10/09 12:13:08;;;;;;;11.67;10.77;;;;;;;;;;1810641;78;617841;-74
2022/10/09 12:15:38;;;;;;;11.53;10.63;;;;;;;;;;1788058;77;618007;-74
2022/10/09 12:18:15;;;;;;;11.03;10.13;;;;;;;;;;1810404;77;617691;-74
2022/10/09 12:20:46;;;;;;;10.73;9.97;;;;;;;;;;1818246;78;615882;-74
2022/10/09 12:23:17;;;;;;;10.60;9.80;;;;;;;;;;1780569;78;615850;-74
2022/10/09 12:25:46;;;;;;;10.93;10.07;;;;;;;;;;1787788;78;613991;-76
2022/10/09 12:28:18;;;;;;;10.57;9.87;;;;;;;;;;1714697;80;617009;-74
2022/10/09 12:30:47;;;;;;;10.23;9.53;;;;;;;;;;1818461;78;614083;-74
2022/10/09 12:33:18;;;;;;;10.03;9.47;;;;;;;;;;1755564;78;615847;-74
2022/10/09 12:35:48;;;;;;;10.07;9.33;;;;;;;;;;1788476;78;614085;-74
2022/10/09 12:38:17;;;;;;;10.77;9.90;;;;;;;;;;1691733;81;614933;-74
2022/10/09 12:40:48;;;;;;;10.60;9.80;;;;;;;;;;1818379;77;613865;-75
2022/10/09 12:43:18;;;;;;;10.07;9.37;;;;;;;;;;1714715;81;615967;-74
2022/10/09 12:45:48;;;;;;;9.93;9.13;;;;;;;;;;1787867;78;613916;-74
2022/10/09 12:48:18;;;;;;;9.97;9.40;;;;;;;;;;1775972;78;613558;-74
2022/10/09 12:50:48;;;;;;;10.70;9.90;;;;;;;;;;1818324;77;611741;-75
2022/10/09 12:53:17;;;;;;;11.20;10.40;;;;;;;;;;1780653;78;615739;-74
2022/10/09 12:55:46;;;;;;;10.73;10.03;;;;;;;;;;1818085;78;615882;-74
2022/10/09 12:58:18;;;;;;;10.77;9.97;;;;;;;;;;1810498;77;617761;-74
2022/10/09 13:00:46;;;;;;;11.20;10.40;;;;;;;;;;1788407;78;614010;-74
2022/10/09 13:03:25;;;;;;;11.73;10.70;;;;;;;;;;1780077;78;617877;-74
2022/10/09 13:05:56;;;;;;;10.93;10.13;;;;;;;;;;1718601;80;617774;-75
2022/10/09 13:08:27;;;;;;;10.57;9.80;;;;;;;;;;1710034;81;617960;-74
2022/10/09 13:10:58;;;;;;;10.57;9.77;;;;;;;;;;1732172;79;615702;-74
2022/10/09 13:13:27;;;;;;;10.60;9.80;;;;;;;;;;1763767;80;615687;-74
2022/10/09 13:16:01;;;;;;;10.10;9.30;;;;;;;;;;1714272;80;615612;-74
2022/10/09 13:18:29;;;;;;;9.83;9.20;;;;;;;;;;1786814;78;615782;-74
2022/10/09 13:20:59;;;;;;;10.57;9.77;;;;;;;;;;1780990;78;613614;-76
2022/10/09 13:23:30;;;;;;;9.77;9.20;;;;;;;;;;1786567;78;615880;-75
2022/10/09 13:25:59;;;;;;;10.47;9.70;;;;;;;;;;1809619;77;613531;-74
2022/10/09 13:28:28;;;;;;;10.33;9.63;;;;;;;;;;1740641;80;614878;-74
2022/10/09 13:30:56;;;;;;;9.53;9.00;;;;;;;;;;1802262;78;615736;-74
2022/10/09 13:33:25;;;;;;;10.67;9.90;;;;;;;;;;1786809;78;613875;-74
2022/10/09 13:35:54;;;;;;;9.53;8.90;;;;;;;;;;1782451;77;615726;-75
2022/10/09 13:38:23;;;;;;;10.30;9.50;;;;;;;;;;1833921;76;613771;-74
2022/10/09 13:40:52;;;;;;;10.40;9.70;;;;;;;;;;1787421;78;613666;-74
2022/10/09 13:43:22;;;;;;;10.43;9.63;;;;;;;;;;1786220;78;614951;-74
2022/10/09 13:45:51;;;;;;;18.17;11.07;;;;;;;;;;1740718;80;613734;-74
2022/10/09 13:48:20;;;;;;;10.30;9.70;;;;;;;;;;1724673;79;617818;-75
2022/10/09 13:50:49;;;;;;;128.63;55.93;;;;;;;;;;1744219;79;613849;-74
2022/10/09 13:53:18;;;;;;;11.47;10.70;;;;;;;;;;1749855;80;619176;-74
2022/10/09 13:55:46;;;;;;;11.00;10.30;;;;;;;;;;1764355;79;615120;-74
2022/10/09 13:58:15;;;;;;;28.23;18.83;;;;;;;;;;1709465;80;616868;-74
2022/10/09 14:00:44;;;;;;;11.17;10.30;;;;;;;;;;1786414;78;616058;-74
2022/10/09 14:03:13;;;;;;;10.53;9.73;;;;;;;;;;1711734;81;617027;-75
2022/10/09 14:05:41;;;;;;;10.43;9.73;;;;;;;;;;1810240;76;613826;-74
2022/10/09 14:08:10;;;;;;;9.90;9.30;;;;;;;;;;1779727;78;614839;-74
2022/10/09 14:10:41;;;;;;;10.60;9.80;;;;;;;;;;1740845;80;611015;-74
2022/10/09 14:13:10;;;;;;;10.63;10.00;;;;;;;;;;1809434;77;614879;-74
2022/10/09 14:15:40;;;;;;;11.23;10.40;;;;;;;;;;1817195;76;616911;-74
2022/10/09 14:18:09;;;;;;;11.10;10.23;;;;;;;;;;1809549;77;617113;-75
2022/10/09 14:20:37;;;;;;;9.90;9.30;;;;;;;;;;1786005;78;617011;-74
2022/10/09 14:23:06;;;;;;;10.37;9.80;;;;;;;;;;1779384;78;612772;-74